Time;durP1;ratioP1;P1;durP2;ratioP2;P2;SDS_P1;SDS_P2;PMS_P1;PMS_P2;Temp;Humidity;BMP_temperature;BMP_pressure;BME280_temperature;BME280_humidity;BME280_pressure;Samples;Min_cycle;Max_cycle;Signal;HPM_P1;HPM_P2
2022/09/09 00:02:15;;;;;;;12.20;7.42;;;;;;;11.76;71.73;100106.18;1729318;81;25674;-69
2022/09/09 00:04:42;;;;;;;14.03;7.55;;;;;;;11.70;72.26;100100.70;1717711;81;25703;-70
2022/09/09 00:07:35;;;;;;;11.57;6.92;;;;;;;11.65;72.24;100102.23;1722960;81;25400;-71
2022/09/09 00:10:23;;;;;;;19.45;8.60;;;;;;;11.59;71.76;100095.63;1727815;81;27330;-70
2022/09/09 00:13:27;;;;;;;13.80;8.05;;;;;;;11.55;72.31;100095.22;1727404;81;25751;-70
2022/09/09 00:16:12;;;;;;;13.08;7.65;;;;;;;11.55;72.39;100098.71;1728444;81;25463;-70
2022/09/09 00:19:08;;;;;;;12.30;7.35;;;;;;;11.54;72.74;100094.43;1728296;81;25459;-70
2022/09/09 00:21:52;;;;;;;14.20;7.70;;;;;;;11.51;73.49;100095.06;1692808;82;25530;-70
2022/09/09 00:24:32;;;;;;;14.85;8.13;;;;;;;11.50;73.42;100092.67;1691246;84;27326;-70
2022/09/09 00:27:19;;;;;;;16.20;8.48;;;;;;;11.44;73.26;100087.98;1688914;84;25541;-69
2022/09/09 00:29:57;;;;;;;14.55;8.43;;;;;;;11.43;73.82;100083.67;1687526;83;25675;-70
2022/09/09 00:32:28;;;;;;;14.03;7.72;;;;;;;11.40;73.86;100084.30;1694594;84;25516;-71
2022/09/09 00:35:02;;;;;;;15.00;7.62;;;;;;;11.39;74.40;100087.58;1672800;85;25487;-71
2022/09/09 00:37:34;;;;;;;13.72;7.78;;;;;;;11.37;74.35;100075.45;1668066;85;27418;-69
2022/09/09 00:40:18;;;;;;;16.42;8.35;;;;;;;11.35;74.58;100077.13;1671800;85;25754;-69
2022/09/09 00:42:45;;;;;;;15.48;8.33;;;;;;;11.36;74.92;100071.97;1636061;87;25645;-69
2022/09/09 00:45:45;;;;;;;11.60;7.83;;;;;;;11.35;75.08;100074.42;1660161;86;25741;-69
2022/09/09 00:48:12;;;;;;;;;;;;;;;11.36;75.42;100068.47;1659551;86;25880;-70
2022/09/09 00:51:02;;;;;;;11.40;7.15;;;;;;;11.35;75.80;100067.66;1660133;86;27389;-69
2022/09/09 00:53:58;;;;;;;15.90;7.72;;;;;;;11.34;75.95;100066.61;1659368;86;27139;-69
2022/09/09 00:56:30;;;;;;;12.53;7.58;;;;;;;11.31;76.08;100068.06;1632369;87;25568;-71
2022/09/09 00:59:26;;;;;;;17.45;7.85;;;;;;;11.30;76.02;100066.46;1640026;87;25700;-71
2022/09/09 01:01:55;;;;;;;16.35;9.13;;;;;;;11.31;76.27;100067.28;1645840;86;25514;-69
2022/09/09 01:04:33;;;;;;;12.43;8.13;;;;;;;11.30;76.74;100058.34;1645893;87;27413;-69
2022/09/09 01:07:18;;;;;;;14.68;9.10;;;;;;;11.28;76.56;100059.22;1659007;85;25628;-70
2022/09/09 01:09:58;;;;;;;18.17;9.38;;;;;;;11.29;76.71;100060.83;1652791;86;25797;-72
2022/09/09 01:12:42;;;;;;;;;;;;;;;11.29;77.08;100063.53;1655667;86;25500;-69
2022/09/09 01:15:16;;;;;;;13.32;8.45;;;;;;;11.28;77.72;100064.63;1653039;86;25484;-68
2022/09/09 01:18:06;;;;;;;14.80;9.88;;;;;;;11.25;77.41;100062.56;1653058;85;28144;-70
2022/09/09 01:20:46;;;;;;;16.20;9.33;;;;;;;11.25;78.22;100061.77;1653223;86;27171;-70
2022/09/09 01:23:46;;;;;;;16.65;10.10;;;;;;;11.24;78.41;100065.58;1620352;88;25784;-70
2022/09/09 01:26:36;;;;;;;17.52;9.45;;;;;;;11.17;78.39;100061.46;1636506;87;26203;-69
2022/09/09 01:29:02;;;;;;;15.68;9.65;;;;;;;11.19;78.44;100060.58;1644436;87;25468;-71
2022/09/09 01:31:36;;;;;;;15.38;10.18;;;;;;;11.19;78.33;100063.85;1656867;84;27387;-69
2022/09/09 01:34:09;;;;;;;14.73;9.65;;;;;;;11.19;78.60;100053.81;1696970;84;25821;-70
2022/09/09 01:36:41;;;;;;;20.48;9.88;;;;;;;11.21;78.86;100061.05;1700363;84;25732;-70
2022/09/09 01:39:07;;;;;;;18.60;10.13;;;;;;;11.21;78.84;100059.70;1689261;83;25457;-71
2022/09/09 01:41:33;;;;;;;17.35;10.05;;;;;;;11.23;78.70;100064.01;1697942;84;25478;-71
2022/09/09 01:44:00;;;;;;;16.25;10.23;;;;;;;11.24;78.79;100060.17;1695345;84;27338;-71
2022/09/09 01:46:29;;;;;;;16.82;10.35;;;;;;;11.23;79.18;100059.38;1694303;84;25568;-69
2022/09/09 01:48:57;;;;;;;16.60;10.35;;;;;;;11.25;79.35;100057.71;1694686;84;25643;-68
2022/09/09 01:51:24;;;;;;;17.85;10.05;;;;;;;11.27;80.19;100050.06;1687648;84;25859;-69
2022/09/09 01:53:50;;;;;;;21.00;11.25;;;;;;;11.25;79.33;100054.44;1696718;84;25828;-68
2022/09/09 01:56:36;;;;;;;17.40;10.15;;;;;;;11.25;79.85;100050.94;1695850;84;27409;-68
2022/09/09 01:59:17;;;;;;;16.00;10.48;;;;;;;11.23;79.49;100058.02;1692346;84;25640;-69
2022/09/09 02:02:09;;;;;;;14.00;9.93;;;;;;;11.25;79.81;100051.73;1720341;81;25756;-69
2022/09/09 02:04:56;;;;;;;19.05;10.75;;;;;;;11.25;79.81;100050.94;1728630;82;26202;-69
2022/09/09 02:07:34;;;;;;;21.75;11.68;;;;;;;11.26;79.91;100053.33;1720681;82;25646;-69
2022/09/09 02:10:41;;;;;;;17.50;9.65;;;;;;;11.27;80.09;100050.06;1719024;82;26845;-69
2022/09/09 02:13:15;;;;;;;19.15;11.38;;;;;;;11.29;80.42;100050.53;1714276;81;25771;-69
2022/09/09 02:15:49;;;;;;;17.98;11.68;;;;;;;11.28;80.42;100052.45;1727226;81;25586;-69
2022/09/09 02:18:22;;;;;;;17.62;11.18;;;;;;;11.29;80.55;100049.17;1706029;82;25964;-70
2022/09/09 02:20:48;;;;;;;16.80;11.45;;;;;;;11.28;80.43;100053.80;1725538;81;25463;-69
2022/09/09 02:23:15;;;;;;;21.97;11.75;;;;;;;11.31;80.76;100055.88;1722822;81;27555;-69
2022/09/09 02:25:44;;;;;;;17.07;11.48;;;;;;;11.31;80.82;100046.41;1722899;81;25439;-69
2022/09/09 02:28:13;;;;;;;17.13;11.53;;;;;;;11.33;80.76;100046.87;1708319;82;25724;-69
2022/09/09 02:30:41;;;;;;;16.52;11.05;;;;;;;11.35;81.01;100047.91;1717427;82;25655;-68
2022/09/09 02:33:10;;;;;;;19.32;11.50;;;;;;;11.36;81.05;100046.23;1714893;82;25629;-68
2022/09/09 02:35:38;;;;;;;15.90;10.63;;;;;;;11.38;80.99;100049.42;1705757;82;27330;-68
2022/09/09 02:38:09;;;;;;;16.67;10.63;;;;;;;11.40;81.04;100046.39;1718168;83;25680;-69
2022/09/09 02:40:36;;;;;;;18.90;10.58;;;;;;;11.40;81.01;100043.12;1707764;82;25476;-68
2022/09/09 02:43:02;;;;;;;17.87;10.28;;;;;;;11.43;81.49;100050.39;1706527;82;27559;-69
2022/09/09 02:45:42;;;;;;;19.17;10.32;;;;;;;11.39;81.12;100057.80;1716665;82;25543;-69
2022/09/09 02:48:23;;;;;;;19.32;10.10;;;;;;;11.40;81.42;100053.16;1713417;82;27396;-69
2022/09/09 02:51:00;;;;;;;16.07;10.38;;;;;;;11.43;81.50;100055.23;1710253;82;25528;-68
2022/09/09 02:53:44;;;;;;;13.62;9.20;;;;;;;11.45;81.61;100053.56;1709848;82;25436;-69
2022/09/09 02:56:15;;;;;;;15.08;9.08;;;;;;;11.45;81.64;100057.63;1727283;82;25621;-69
2022/09/09 02:58:42;;;;;;;14.93;9.85;;;;;;;11.45;81.71;100051.64;1727616;81;25448;-69
2022/09/09 03:01:08;;;;;;;17.42;10.90;;;;;;;11.45;81.85;100051.64;1723755;82;27323;-69
2022/09/09 03:03:35;;;;;;;16.00;10.05;;;;;;;11.47;82.10;100053.47;1700004;82;25785;-69
2022/09/09 03:06:02;;;;;;;13.40;9.83;;;;;;;11.47;81.84;100056.17;1694014;84;25669;-69
2022/09/09 03:08:28;;;;;;;12.45;8.88;;;;;;;11.49;81.85;100055.86;1700808;82;25574;-69
2022/09/09 03:10:55;;;;;;;19.23;10.38;;;;;;;11.49;82.03;100053.97;1712928;83;25472;-69
2022/09/09 03:13:21;;;;;;;15.28;9.83;;;;;;;11.52;82.05;100057.93;1694219;84;27313;-69
2022/09/09 03:15:48;;;;;;;12.40;9.10;;;;;;;11.53;82.04;100056.26;1672925;84;25739;-69
2022/09/09 03:18:14;;;;;;;13.30;9.78;;;;;;;11.55;82.50;100054.02;1672095;85;25624;-69
2022/09/09 03:20:42;;;;;;;15.35;9.35;;;;;;;11.55;81.98;100055.94;1670373;84;27637;-69
2022/09/09 03:23:09;;;;;;;14.83;9.78;;;;;;;11.56;82.16;100052.09;1666457;85;25431;-69
2022/09/09 03:25:35;;;;;;;14.55;9.40;;;;;;;11.57;82.16;100050.99;1667760;84;27358;-69
2022/09/09 03:28:02;;;;;;;18.40;9.88;;;;;;;11.56;82.34;100048.03;1673191;85;25648;-68
2022/09/09 03:30:28;;;;;;;13.22;9.85;;;;;;;11.57;82.24;100048.28;1702039;83;25618;-68
2022/09/09 03:32:59;;;;;;;13.93;9.38;;;;;;;11.59;82.37;100048.75;1715795;82;25644;-68
2022/09/09 03:35:23;;;;;;;14.68;9.45;;;;;;;11.62;82.37;100045.97;1666666;84;25723;-69
2022/09/09 03:37:49;;;;;;;12.03;9.28;;;;;;;11.62;82.38;100050.83;1666592;84;29556;-69
2022/09/09 03:40:15;;;;;;;18.65;8.93;;;;;;;11.64;82.40;100047.23;1671168;85;25561;-69
2022/09/09 03:42:41;;;;;;;14.38;9.15;;;;;;;11.65;82.48;100043.98;1672211;84;25471;-69
2022/09/09 03:45:10;;;;;;;13.00;10.00;;;;;;;11.65;82.32;100046.69;1668379;85;25399;-69
2022/09/09 03:47:37;;;;;;;15.10;9.93;;;;;;;11.68;82.64;100046.02;1693137;82;25709;-69
2022/09/09 03:50:08;;;;;;;16.27;9.88;;;;;;;11.70;82.68;100037.83;1699178;83;27437;-69
2022/09/09 03:52:40;;;;;;;15.13;9.55;;;;;;;11.70;82.74;100036.47;1666287;85;25770;-68
2022/09/09 03:55:09;;;;;;;13.53;9.15;;;;;;;11.70;82.85;100031.05;1664577;84;25616;-68
2022/09/09 03:57:36;;;;;;;11.70;8.30;;;;;;;11.72;83.08;100030.73;1668410;85;25873;-68
2022/09/09 04:00:08;;;;;;;13.65;9.45;;;;;;;11.70;82.87;100038.39;1664214;84;25502;-68
2022/09/09 04:02:34;;;;;;;12.50;8.20;;;;;;;11.68;82.83;100035.19;1676094;85;27330;-69
2022/09/09 04:05:00;;;;;;;14.40;9.70;;;;;;;11.70;83.01;100035.11;1664165;85;25600;-69
2022/09/09 04:07:28;;;;;;;11.95;8.73;;;;;;;11.71;83.04;100035.36;1672732;85;25785;-68
2022/09/09 04:09:54;;;;;;;14.47;8.75;;;;;;;11.71;83.11;100042.14;1670234;84;25696;-69
2022/09/09 04:12:20;;;;;;;13.53;8.68;;;;;;;11.73;83.27;100050.73;1670784;85;25655;-69
2022/09/09 04:14:47;;;;;;;13.22;8.83;;;;;;;11.73;83.32;100048.02;1666129;84;27350;-69
2022/09/09 04:17:13;;;;;;;13.60;7.80;;;;;;;11.73;83.27;100052.09;1670586;85;25796;-69
2022/09/09 04:19:39;;;;;;;10.82;7.25;;;;;;;11.74;83.29;100054.23;1669741;84;25427;-70
2022/09/09 04:22:05;;;;;;;8.43;7.33;;;;;;;11.76;83.33;100052.80;1694767;83;25639;-70
2022/09/09 04:24:31;;;;;;;13.03;8.25;;;;;;;11.75;83.23;100054.48;1701374;84;25744;-70
2022/09/09 04:26:57;;;;;;;8.78;7.58;;;;;;;11.76;83.47;100054.70;1699952;82;27337;-69
2022/09/09 04:29:23;;;;;;;10.23;6.90;;;;;;;11.76;83.49;100058.22;1673273;85;25435;-71
2022/09/09 04:31:49;;;;;;;11.60;7.85;;;;;;;11.76;83.51;100056.05;1664261;84;25593;-71
2022/09/09 04:34:15;;;;;;;12.00;7.60;;;;;;;11.76;83.53;100051.98;1670806;85;25688;-71
2022/09/09 04:36:42;;;;;;;11.97;8.10;;;;;;;11.78;83.60;100055.16;1676546;83;25479;-72
2022/09/09 04:39:08;;;;;;;12.10;8.23;;;;;;;11.80;83.79;100056.20;1670129;85;29553;-71
2022/09/09 04:41:34;;;;;;;14.73;8.23;;;;;;;11.85;83.94;100051.96;1673157;84;25641;-71
2022/09/09 04:44:01;;;;;;;10.88;7.25;;;;;;;11.83;83.85;100053.64;1660472;85;25479;-70
2022/09/09 04:46:27;;;;;;;11.40;6.87;;;;;;;11.86;83.91;100048.14;1706079;82;25422;-71
2022/09/09 04:48:53;;;;;;;8.20;7.03;;;;;;;11.86;84.22;100044.87;1729583;82;25529;-71
2022/09/09 04:51:19;;;;;;;10.70;7.65;;;;;;;11.88;83.79;100047.25;1712893;81;27932;-71
2022/09/09 04:53:50;;;;;;;10.72;7.25;;;;;;;11.89;83.99;100051.56;1722347;81;25807;-72
2022/09/09 04:56:17;;;;;;;9.20;7.00;;;;;;;11.92;84.08;100051.74;1728343;81;25412;-71
2022/09/09 04:58:44;;;;;;;9.40;6.62;;;;;;;11.93;84.02;100056.59;1710825;82;25652;-68
2022/09/09 05:01:17;;;;;;;8.18;6.22;;;;;;;11.93;84.07;100057.37;1732521;81;25600;-68
2022/09/09 05:03:45;;;;;;;11.85;5.97;;;;;;;11.95;84.05;100058.42;1733394;82;27737;-68
2022/09/09 05:06:15;;;;;;;10.70;8.53;;;;;;;11.95;84.15;100059.77;1734815;81;25636;-67
2022/09/09 05:08:42;;;;;;;;;;;;;;;11.98;84.14;100067.27;1735859;81;25717;-68
2022/09/09 05:11:27;;;;;;;8.85;6.58;;;;;;;11.99;84.38;100060.73;1735964;81;25638;-67
2022/09/09 05:13:54;;;;;;;7.03;5.60;;;;;;;12.01;84.41;100061.77;1732780;81;25781;-67
2022/09/09 05:16:22;;;;;;;8.23;5.87;;;;;;;12.02;84.46;100062.80;1728895;81;27320;-68
2022/09/09 05:18:51;;;;;;;7.35;5.53;;;;;;;12.04;84.36;100064.63;1733806;82;25480;-68
2022/09/09 05:21:20;;;;;;;6.95;5.47;;;;;;;12.06;84.46;100067.80;1734353;81;25699;-67
2022/09/09 05:23:46;;;;;;;7.75;6.05;;;;;;;12.09;84.47;100067.16;1733589;81;25407;-68
2022/09/09 05:26:17;;;;;;;6.08;5.37;;;;;;;12.10;84.59;100076.08;1733537;81;25478;-68
2022/09/09 05:28:44;;;;;;;6.72;5.70;;;;;;;12.11;84.32;100069.55;1697654;81;27306;-68
2022/09/09 05:31:13;;;;;;;6.67;5.35;;;;;;;12.11;84.35;100079.82;1668433;85;25720;-69
2022/09/09 05:33:42;;;;;;;6.92;5.42;;;;;;;12.14;84.46;100075.68;1668938;84;25616;-69
2022/09/09 05:36:15;;;;;;;6.55;5.50;;;;;;;12.16;84.31;100070.72;1665880;85;25694;-68
2022/09/09 05:38:42;;;;;;;7.17;5.65;;;;;;;12.16;84.45;100076.15;1663920;84;25796;-68
2022/09/09 05:41:11;;;;;;;7.70;5.95;;;;;;;12.19;84.60;100078.22;1684534;83;27394;-68
2022/09/09 05:43:38;;;;;;;7.53;5.58;;;;;;;12.22;84.58;100080.82;1696646;83;25640;-69
2022/09/09 05:46:11;;;;;;;7.62;5.70;;;;;;;12.23;84.59;100082.42;1687075;82;25566;-68
2022/09/09 05:48:43;;;;;;;7.55;5.78;;;;;;;12.26;84.65;100085.28;1655887;85;25621;-68
2022/09/09 05:51:15;;;;;;;8.53;6.20;;;;;;;12.25;84.38;100085.03;1660718;84;25710;-68
2022/09/09 05:53:42;;;;;;;10.25;6.03;;;;;;;12.26;84.53;100081.75;1663556;85;27315;-68
2022/09/09 05:56:21;;;;;;;6.00;5.45;;;;;;;12.26;84.48;100079.04;1663775;84;25704;-68
2022/09/09 05:58:49;;;;;;;9.15;5.95;;;;;;;12.24;84.51;100082.10;1666876;84;35034;-67
2022/09/09 06:01:19;;;;;;;10.28;6.22;;;;;;;12.27;84.60;100085.50;1703737;82;25612;-68
2022/09/09 06:03:49;;;;;;;8.45;6.60;;;;;;;12.27;84.72;100084.14;1689959;83;25606;-68
2022/09/09 06:06:23;;;;;;;8.40;7.37;;;;;;;12.31;84.89;100084.31;1690786;82;27897;-68
2022/09/09 06:08:57;;;;;;;8.18;6.05;;;;;;;12.31;84.83;100085.67;1663025;85;25632;-68
2022/09/09 06:11:27;;;;;;;8.45;6.50;;;;;;;12.33;84.87;100084.20;1655448;84;25813;-68
2022/09/09 06:13:54;;;;;;;7.53;6.60;;;;;;;12.35;84.99;100082.53;1665774;84;26053;-68
2022/09/09 06:16:24;;;;;;;7.75;6.40;;;;;;;12.36;84.79;100095.52;1704288;82;25429;-68
2022/09/09 06:18:52;;;;;;;10.58;7.30;;;;;;;12.33;84.81;100098.34;1685990;82;27968;-67
2022/09/09 06:21:35;;;;;;;9.78;7.37;;;;;;;12.36;85.19;100100.41;1698775;82;25612;-68
2022/09/09 06:24:03;;;;;;;7.40;6.60;;;;;;;12.35;85.11;100098.80;1668444;85;25458;-68
2022/09/09 06:26:33;;;;;;;9.83;6.92;;;;;;;12.36;85.19;100100.94;1668275;84;25737;-68
2022/09/09 06:29:02;;;;;;;9.55;7.90;;;;;;;12.34;85.17;100099.91;1665306;85;25624;-68
2022/09/09 06:31:30;;;;;;;9.13;7.30;;;;;;;12.33;85.21;100104.55;1661221;84;27341;-68
2022/09/09 06:33:58;;;;;;;9.20;7.45;;;;;;;12.34;85.30;100102.63;1650553;85;25779;-68
2022/09/09 06:36:29;;;;;;;9.93;7.03;;;;;;;12.35;85.45;100104.80;1674074;84;25591;-68
2022/09/09 06:38:56;;;;;;;8.45;7.12;;;;;;;12.36;85.34;100105.02;1667332;84;25677;-72
2022/09/09 06:41:26;;;;;;;9.15;7.58;;;;;;;12.37;85.46;100103.33;1669237;84;25762;-68
2022/09/09 06:43:53;;;;;;;13.58;9.25;;;;;;;12.39;85.67;100111.94;1663934;85;27965;-68
2022/09/09 06:46:27;;;;;;;10.75;7.80;;;;;;;12.40;85.69;100112.75;1671803;84;25943;-68
2022/09/09 06:48:57;;;;;;;10.30;7.55;;;;;;;12.41;85.61;100119.20;1652839;85;25711;-67
2022/09/09 06:51:25;;;;;;;;;;;;;;;12.43;85.83;100116.96;1692986;83;25575;-67
2022/09/09 06:53:55;;;;;;;12.10;8.45;;;;;;;12.46;86.04;100122.28;1673447;85;25485;-68
2022/09/09 06:56:32;;;;;;;21.10;17.60;;;;;;;12.48;86.12;100118.14;1669943;84;27358;-67
2022/09/09 06:59:03;;;;;;;11.40;8.60;;;;;;;12.48;85.98;100116.78;1685629;84;25561;-68
2022/09/09 07:01:33;;;;;;;9.83;8.63;;;;;;;12.49;85.90;100116.20;1659529;85;25629;-68
2022/09/09 07:04:01;;;;;;;;;;;;;;;12.50;86.11;100123.23;1658887;85;25994;-67
2022/09/09 07:06:32;;;;;;;11.97;7.92;;;;;;;12.54;86.63;100123.38;1665079;84;25492;-68
2022/09/09 07:09:03;;;;;;;12.47;8.98;;;;;;;12.54;86.25;100126.09;1721371;83;28074;-67
2022/09/09 07:11:34;;;;;;;11.25;8.75;;;;;;;12.53;86.31;100126.63;1694179;82;25565;-67
2022/09/09 07:14:01;;;;;;;14.38;9.18;;;;;;;12.56;86.46;100129.27;1706303;84;25736;-68
2022/09/09 07:16:29;;;;;;;12.58;10.03;;;;;;;12.59;86.42;100125.34;1667021;85;25912;-68
2022/09/09 07:18:57;;;;;;;11.12;9.78;;;;;;;12.58;86.10;100125.13;1702297;82;25785;-68
2022/09/09 07:21:26;;;;;;;12.07;9.18;;;;;;;12.55;86.10;100123.06;1700676;82;27386;-68
2022/09/09 07:23:53;;;;;;;13.55;9.83;;;;;;;12.59;86.38;100129.41;1673046;85;25394;-68
2022/09/09 07:26:23;;;;;;;13.80;9.63;;;;;;;12.62;86.71;100126.05;1658827;84;25837;-68
2022/09/09 07:28:50;;;;;;;16.10;11.35;;;;;;;12.67;86.94;100127.22;1681377;83;25849;-67
2022/09/09 07:31:21;;;;;;;13.62;10.08;;;;;;;12.75;87.20;100137.00;1695519;82;25694;-67
2022/09/09 07:33:48;;;;;;;14.80;9.85;;;;;;;12.75;86.57;100143.21;1719042;82;27504;-68
2022/09/09 07:36:21;;;;;;;15.48;9.73;;;;;;;12.74;86.34;100147.06;1711287;81;25732;-69
2022/09/09 07:38:52;;;;;;;13.30;9.23;;;;;;;12.73;86.32;100150.10;1713104;81;25694;-68
2022/09/09 07:41:24;;;;;;;13.43;9.63;;;;;;;12.73;86.24;100146.03;1740946;82;25707;-68
2022/09/09 07:43:56;;;;;;;12.53;8.93;;;;;;;12.75;86.61;100151.35;1740808;81;25379;-68
2022/09/09 07:46:25;;;;;;;12.70;9.03;;;;;;;12.75;86.55;100153.28;1740965;82;28000;-67
2022/09/09 07:48:55;;;;;;;;;;;;;;;12.75;86.64;100144.56;1743439;82;25651;-68
2022/09/09 07:51:32;;;;;;;12.68;9.33;;;;;;;12.76;86.87;100154.88;1740779;82;25630;-68
2022/09/09 07:54:03;;;;;;;14.35;9.55;;;;;;;12.76;86.88;100152.95;1740872;82;25933;-67
2022/09/09 07:56:31;;;;;;;13.85;10.25;;;;;;;12.78;86.84;100151.27;1741026;82;25388;-67
2022/09/09 07:58:59;;;;;;;14.28;10.25;;;;;;;12.80;86.87;100153.88;1740897;82;28090;-68
2022/09/09 08:01:33;;;;;;;13.60;9.75;;;;;;;12.82;86.98;100160.34;1706324;82;25737;-68
2022/09/09 08:04:04;;;;;;;12.95;9.23;;;;;;;12.84;86.88;100161.63;1677964;85;25651;-68
2022/09/09 08:06:38;;;;;;;11.97;9.15;;;;;;;12.84;86.86;100160.27;1673576;85;25717;-67
2022/09/09 08:09:06;;;;;;;11.65;8.95;;;;;;;12.86;87.01;100166.16;1674191;84;25660;-67
2022/09/09 08:11:33;;;;;;;12.93;9.80;;;;;;;12.86;86.61;100172.94;1665504;85;27402;-68
2022/09/09 08:13:59;;;;;;;13.75;9.35;;;;;;;12.86;86.65;100174.30;1671410;84;25508;-68
2022/09/09 08:16:30;;;;;;;15.23;10.82;;;;;;;12.86;86.54;100178.38;1669860;85;25751;-69
2022/09/09 08:18:58;;;;;;;14.87;10.05;;;;;;;12.84;86.37;100182.55;1700806;84;25714;-68
2022/09/09 08:21:29;;;;;;;16.52;9.80;;;;;;;12.81;86.46;100173.13;1726546;81;25683;-67
2022/09/09 08:23:58;;;;;;;14.78;10.25;;;;;;;12.81;86.64;100175.05;1731924;81;29504;-67
2022/09/09 08:26:31;;;;;;;14.80;10.28;;;;;;;12.83;86.81;100175.52;1689849;82;25607;-68
2022/09/09 08:29:00;;;;;;;17.02;10.65;;;;;;;12.84;87.24;100169.77;1699616;83;25561;-67
2022/09/09 08:31:37;;;;;;;19.40;11.67;;;;;;;12.89;87.48;100173.65;1681757;82;25957;-68
2022/09/09 08:34:05;;;;;;;16.30;10.30;;;;;;;12.93;87.57;100179.22;1723170;81;25430;-68
2022/09/09 08:36:43;;;;;;;16.15;10.63;;;;;;;12.94;87.40;100180.00;1694647;82;27366;-67
2022/09/09 08:39:12;;;;;;;14.80;9.73;;;;;;;12.97;87.25;100177.42;1714742;82;25722;-68
2022/09/09 08:41:50;;;;;;;14.87;10.18;;;;;;;12.98;87.20;100182.31;1733743;81;26379;-68
2022/09/09 08:44:22;;;;;;;10.63;9.53;;;;;;;12.98;87.37;100183.67;1683878;83;25594;-68
2022/09/09 08:47:06;;;;;;;16.02;10.68;;;;;;;12.98;87.21;100186.39;1664439;84;25665;-68
2022/09/09 08:50:25;;;;;;;15.05;10.15;;;;;;;12.98;87.03;100189.10;1705020;83;27324;-68
2022/09/09 08:53:07;;;;;;;17.98;9.93;;;;;;;12.96;87.10;100197.58;1686040;82;25896;-68
2022/09/09 08:55:49;;;;;;;18.25;11.18;;;;;;;12.96;87.08;100190.78;1687698;83;25704;-68
2022/09/09 08:58:34;;;;;;;12.80;10.78;;;;;;;12.98;87.48;100191.82;1682827;82;26229;-67
2022/09/09 09:01:12;;;;;;;17.40;10.82;;;;;;;12.99;87.62;100196.92;1627774;85;25767;-67
2022/09/09 09:04:01;;;;;;;15.38;10.93;;;;;;;12.98;87.54;100197.25;1625576;85;27354;-67
2022/09/09 09:06:36;;;;;;;17.30;10.98;;;;;;;12.99;87.57;100201.53;1625936;85;25625;-67
2022/09/09 09:09:34;;;;;;;18.65;12.07;;;;;;;13.03;87.77;100197.06;1625634;85;25421;-68
2022/09/09 09:12:02;;;;;;;19.10;11.65;;;;;;;13.07;88.08;100200.70;1635428;86;25698;-67
2022/09/09 09:14:33;;;;;;;18.85;11.55;;;;;;;13.10;87.87;100201.98;1643374;86;25751;-66
2022/09/09 09:17:05;;;;;;;16.82;12.18;;;;;;;13.12;87.89;100205.95;1618089;87;26810;-66
2022/09/09 09:19:35;;;;;;;18.70;12.05;;;;;;;13.14;87.79;100202.91;1648431;85;25814;-67
2022/09/09 09:22:27;;;;;;;16.90;12.68;;;;;;;13.17;87.92;100210.41;1645939;85;25866;-68
2022/09/09 09:25:01;;;;;;;18.50;12.18;;;;;;;13.19;87.98;100209.51;1649570;85;25884;-67
2022/09/09 09:28:05;;;;;;;17.62;12.47;;;;;;;13.22;87.93;100217.00;1668383;84;25682;-67
2022/09/09 09:30:40;;;;;;;18.70;12.10;;;;;;;13.25;87.90;100217.14;1591651;88;27445;-66
2022/09/09 09:33:30;;;;;;;20.35;13.78;;;;;;;13.26;87.68;100218.74;1591072;88;25466;-67
2022/09/09 09:35:59;;;;;;;17.30;12.88;;;;;;;13.25;87.64;100218.50;1591010;87;25777;-68
2022/09/09 09:38:28;;;;;;;18.73;12.45;;;;;;;13.24;87.47;100214.17;1641741;85;25676;-67
2022/09/09 09:40:59;;;;;;;18.85;13.25;;;;;;;13.27;88.01;100218.95;1606210;87;26360;-66
2022/09/09 09:43:33;;;;;;;20.05;13.53;;;;;;;13.33;87.92;100220.97;1607693;88;27345;-67
2022/09/09 09:46:04;;;;;;;24.50;13.75;;;;;;;13.34;87.83;100223.12;1618327;85;25888;-67
2022/09/09 09:48:32;;;;;;;23.20;14.65;;;;;;;13.36;88.00;100225.72;1615533;87;25719;-67
2022/09/09 09:51:15;;;;;;;20.65;13.50;;;;;;;13.37;87.97;100226.54;1594909;87;25999;-67
2022/09/09 09:53:41;;;;;;;21.65;13.85;;;;;;;13.39;87.94;100232.44;1597788;88;25621;-67
2022/09/09 09:56:11;;;;;;;23.35;14.38;;;;;;;13.41;87.86;100234.25;1605434;87;28074;-66
2022/09/09 09:58:50;;;;;;;23.10;14.00;;;;;;;13.40;87.73;100229.39;1602098;87;25356;-67
2022/09/09 10:01:29;;;;;;;22.85;14.40;;;;;;;13.39;87.65;100227.00;1596192;88;25677;-67
2022/09/09 10:04:04;;;;;;;21.73;14.10;;;;;;;13.39;87.70;100227.00;1595647;87;25954;-67
2022/09/09 10:06:36;;;;;;;22.58;14.55;;;;;;;13.42;87.83;100224.98;1636550;83;26441;-67
2022/09/09 10:09:27;;;;;;;22.00;14.60;;;;;;;13.44;88.00;100228.95;1711006;83;28285;-68
2022/09/09 10:12:03;;;;;;;24.37;15.15;;;;;;;13.49;88.10;100229.33;1697734;82;25739;-67
2022/09/09 10:14:58;;;;;;;26.20;15.68;;;;;;;13.46;87.92;100227.27;1689029;82;25309;-68
2022/09/09 10:17:34;;;;;;;26.80;15.18;;;;;;;13.52;87.96;100227.86;1689150;82;25498;-67
2022/09/09 10:20:19;;;;;;;28.92;17.15;;;;;;;13.58;88.56;100225.19;1653330;84;25734;-67
2022/09/09 10:22:56;;;;;;;26.10;17.02;;;;;;;13.64;88.71;100225.23;1630346;86;28196;-67
2022/09/09 10:25:37;;;;;;;34.92;18.73;;;;;;;13.68;88.45;100224.01;1614415;87;25667;-66
2022/09/09 10:28:40;;;;;;;25.02;16.73;;;;;;;13.73;88.31;100231.39;1650856;84;25825;-67
2022/09/09 10:31:23;;;;;;;25.57;16.62;;;;;;;13.77;88.25;100242.39;1679306;85;25796;-67
2022/09/09 10:33:58;;;;;;;25.80;16.77;;;;;;;13.77;87.90;100248.65;1667952;85;25551;-66
2022/09/09 10:36:26;;;;;;;28.10;17.77;;;;;;;13.78;87.91;100246.72;1678136;84;27308;-67
2022/09/09 10:39:33;;;;;;;26.48;16.55;;;;;;;13.78;87.77;100244.00;1673322;85;25782;-67
2022/09/09 10:42:04;;;;;;;27.32;15.95;;;;;;;13.78;87.63;100249.44;1676973;84;25695;-66
2022/09/09 10:44:56;;;;;;;28.83;16.70;;;;;;;13.77;87.42;100257.34;1678405;85;25700;-68
2022/09/09 10:47:48;;;;;;;32.73;20.27;;;;;;;13.80;87.62;100258.05;1678555;85;25640;-69
2022/09/09 10:50:44;;;;;;;25.80;16.23;;;;;;;13.79;87.52;100257.80;1679526;85;28088;-67
2022/09/09 10:53:38;;;;;;;23.32;16.10;;;;;;;13.79;87.35;100265.96;1679305;85;25631;-67
2022/09/09 10:56:09;;;;;;;25.30;15.80;;;;;;;13.77;87.60;100265.50;1569673;91;25864;-66
2022/09/09 10:58:49;;;;;;;25.10;17.20;;;;;;;13.76;87.59;100272.08;1569802;91;25759;-66
2022/09/09 11:01:38;;;;;;;23.57;15.50;;;;;;;13.74;87.46;100275.67;1546650;92;25766;-66
2022/09/09 11:04:37;;;;;;;26.15;16.25;;;;;;;13.72;87.51;100282.80;1597684;89;33261;-67
2022/09/09 11:07:09;;;;;;;25.55;15.98;;;;;;;13.72;87.53;100287.45;1519029;94;36060;-67
2022/09/09 11:09:50;;;;;;;26.50;17.57;;;;;;;13.71;87.42;100287.23;1499992;94;25847;-68
2022/09/09 11:12:20;;;;;;;25.35;17.15;;;;;;;13.71;87.79;100290.73;1518742;93;25579;-66
2022/09/09 11:15:15;;;;;;;27.77;17.37;;;;;;;13.71;87.68;100296.74;1519155;93;25539;-67
2022/09/09 11:17:57;;;;;;;24.82;15.70;;;;;;;13.72;87.69;100303.75;1518920;93;27408;-66
2022/09/09 11:20:25;;;;;;;26.23;16.62;;;;;;;13.74;88.05;100300.14;1518142;93;25984;-68
2022/09/09 11:23:00;;;;;;;25.72;16.77;;;;;;;13.73;87.65;100311.58;1519067;93;25784;-66
2022/09/09 11:25:37;;;;;;;25.65;17.70;;;;;;;13.75;87.96;100300.38;1518819;93;25769;-66
2022/09/09 11:28:19;;;;;;;30.02;18.25;;;;;;;13.79;88.07;100304.02;1519077;93;25830;-67
2022/09/09 11:31:07;;;;;;;26.55;16.57;;;;;;;13.84;88.55;100295.67;1518085;93;28164;-66
2022/09/09 11:34:18;;;;;;;29.72;18.42;;;;;;;13.88;88.35;100302.05;1613091;85;25718;-67
2022/09/09 11:37:22;;;;;;;25.77;17.55;;;;;;;13.88;87.85;100300.69;1645764;85;25504;-68
2022/09/09 11:40:19;;;;;;;26.95;18.12;;;;;;;13.92;88.01;100309.77;1645733;85;25692;-69
2022/09/09 11:42:49;;;;;;;29.87;17.10;;;;;;;13.93;88.03;100309.23;1683581;82;25711;-66
2022/09/09 11:45:23;;;;;;;;;;;;;;;13.95;87.89;100309.11;1712064;83;27297;-66
2022/09/09 11:47:59;;;;;;;23.75;16.10;;;;;;;14.00;88.21;100313.56;1710222;83;25775;-67
2022/09/09 11:50:32;;;;;;;25.23;17.50;;;;;;;14.04;88.36;100312.34;1710673;83;25602;-68